sensor_id;sensor_type;location;lat;lon;timestamp;pressure;altitude;pressure_sealevel;temperature;humidity
50292;BME280;36190;54.980;73.388;2022-08-21T00:00:28;100766.59;;;12.85;78.33
50292;BME280;36190;54.980;73.388;2022-08-21T00:03:00;100760.88;;;12.88;77.98
50292;BME280;36190;54.980;73.388;2022-08-21T00:05:29;100770.41;;;12.90;78.20
50292;BME280;36190;54.980;73.388;2022-08-21T00:07:56;100763.41;;;12.89;78.04
50292;BME280;36190;54.980;73.388;2022-08-21T00:10:24;100757.69;;;12.92;78.11
50292;BME280;36190;54.980;73.388;2022-08-21T00:12:52;100764.06;;;12.91;78.09
50292;BME280;36190;54.980;73.388;2022-08-21T00:15:29;100764.09;;;12.83;78.19
50292;BME280;36190;54.980;73.388;2022-08-21T00:17:59;100761.44;;;12.75;78.23
50292;BME280;36190;54.980;73.388;2022-08-21T00:20:26;100759.13;;;12.72;78.41
50292;BME280;36190;54.980;73.388;2022-08-21T00:22:54;100756.44;;;12.72;78.50
50292;BME280;36190;54.980;73.388;2022-08-21T00:25:21;100761.09;;;12.78;78.41
50292;BME280;36190;54.980;73.388;2022-08-21T00:27:49;100764.09;;;12.83;78.28
50292;BME280;36190;54.980;73.388;2022-08-21T00:30:19;100752.22;;;12.77;78.07
50292;BME280;36190;54.980;73.388;2022-08-21T00:32:47;100763.72;;;12.86;78.37
50292;BME280;36190;54.980;73.388;2022-08-21T00:35:20;100748.03;;;12.83;78.21
50292;BME280;36190;54.980;73.388;2022-08-21T00:37:47;100763.69;;;12.95;78.02
50292;BME280;36190;54.980;73.388;2022-08-21T00:40:19;100760.69;;;12.98;77.94
50292;BME280;36190;54.980;73.388;2022-08-21T00:42:48;100765.34;;;13.04;78.04
50292;BME280;36190;54.980;73.388;2022-08-21T00:45:16;100761.44;;;13.06;77.93
50292;BME280;36190;54.980;73.388;2022-08-21T00:47:43;100763.59;;;13.11;77.79
50292;BME280;36190;54.980;73.388;2022-08-21T00:50:12;100765.25;;;13.20;77.59
50292;BME280;36190;54.980;73.388;2022-08-21T00:52:42;100766.19;;;13.28;77.56
50292;BME280;36190;54.980;73.388;2022-08-21T00:55:11;100760.97;;;13.34;77.10
50292;BME280;36190;54.980;73.388;2022-08-21T00:57:44;100758.47;;;13.33;77.19
50292;BME280;36190;54.980;73.388;2022-08-21T01:00:15;100757.66;;;13.32;77.15
50292;BME280;36190;54.980;73.388;2022-08-21T01:02:43;100768.03;;;13.27;77.17
50292;BME280;36190;54.980;73.388;2022-08-21T01:05:11;100768.22;;;13.26;77.43
50292;BME280;36190;54.980;73.388;2022-08-21T01:07:40;100761.50;;;13.30;77.29
50292;BME280;36190;54.980;73.388;2022-08-21T01:10:08;100761.50;;;13.30;77.29
50292;BME280;36190;54.980;73.388;2022-08-21T01:12:36;100763.00;;;13.32;77.19
50292;BME280;36190;54.980;73.388;2022-08-21T01:15:05;100757.38;;;13.42;77.30
50292;BME280;36190;54.980;73.388;2022-08-21T01:17:35;100763.38;;;13.53;77.04
50292;BME280;36190;54.980;73.388;2022-08-21T01:20:06;100753.97;;;13.57;76.94
50292;BME280;36190;54.980;73.388;2022-08-21T01:22:36;100758.56;;;13.71;76.68
50292;BME280;36190;54.980;73.388;2022-08-21T01:25:05;100758.34;;;13.73;76.36
50292;BME280;36190;54.980;73.388;2022-08-21T01:27:33;100759.69;;;13.77;76.30
50292;BME280;36190;54.980;73.388;2022-08-21T01:30:04;100753.31;;;13.78;76.28
50292;BME280;36190;54.980;73.388;2022-08-21T01:32:34;100759.78;;;13.84;76.45
50292;BME280;36190;54.980;73.388;2022-08-21T01:35:03;100758.41;;;13.88;76.35
50292;BME280;36190;54.980;73.388;2022-08-21T01:37:31;100760.72;;;13.91;76.16
50292;BME280;36190;54.980;73.388;2022-08-21T01:40:00;100763.13;;;13.86;76.23
50292;BME280;36190;54.980;73.388;2022-08-21T01:42:28;100760.63;;;13.84;76.42
50292;BME280;36190;54.980;73.388;2022-08-21T01:44:55;100757.09;;;13.84;76.59
50292;BME280;36190;54.980;73.388;2022-08-21T01:47:23;100762.75;;;13.89;76.26
50292;BME280;36190;54.980;73.388;2022-08-21T01:49:51;100749.94;;;13.99;76.33
50292;BME280;36190;54.980;73.388;2022-08-21T01:52:19;100756.53;;;14.12;76.21
50292;BME280;36190;54.980;73.388;2022-08-21T01:54:47;100753.84;;;14.27;75.92
50292;BME280;36190;54.980;73.388;2022-08-21T01:57:16;100757.56;;;14.41;75.67
50292;BME280;36190;54.980;73.388;2022-08-21T01:59:43;100752.09;;;14.49;75.38
50292;BME280;36190;54.980;73.388;2022-08-21T02:02:11;100754.34;;;14.61;75.19
50292;BME280;36190;54.980;73.388;2022-08-21T02:04:38;100752.94;;;14.65;74.86
50292;BME280;36190;54.980;73.388;2022-08-21T02:07:06;100758.75;;;14.68;74.94
50292;BME280;36190;54.980;73.388;2022-08-21T02:09:33;100751.53;;;14.69;75.04
50292;BME280;36190;54.980;73.388;2022-08-21T02:12:01;100756.47;;;14.80;75.01
50292;BME280;36190;54.980;73.388;2022-08-21T02:14:29;100759.50;;;14.92;74.83
50292;BME280;36190;54.980;73.388;2022-08-21T02:16:57;100754.88;;;15.01;74.50
50292;BME280;36190;54.980;73.388;2022-08-21T02:19:24;100755.38;;;15.11;74.46
50292;BME280;36190;54.980;73.388;2022-08-21T02:21:52;100754.63;;;15.18;74.41
50292;BME280;36190;54.980;73.388;2022-08-21T02:24:19;100756.00;;;15.29;74.27
50292;BME280;36190;54.980;73.388;2022-08-21T02:26:46;100749.84;;;15.35;74.23
50292;BME280;36190;54.980;73.388;2022-08-21T02:29:14;100753.19;;;15.37;74.34
50292;BME280;36190;54.980;73.388;2022-08-21T02:31:42;100756.81;;;15.29;74.59
50292;BME280;36190;54.980;73.388;2022-08-21T02:34:10;100749.16;;;15.26;74.98
50292;BME280;36190;54.980;73.388;2022-08-21T02:36:37;100743.09;;;15.24;75.12
50292;BME280;36190;54.980;73.388;2022-08-21T02:39:05;100746.25;;;15.27;75.04
50292;BME280;36190;54.980;73.388;2022-08-21T02:41:32;100748.19;;;15.34;74.88
50292;BME280;36190;54.980;73.388;2022-08-21T02:43:59;100749.25;;;15.39;74.77
50292;BME280;36190;54.980;73.388;2022-08-21T02:46:27;100743.75;;;15.48;74.65
50292;BME280;36190;54.980;73.388;2022-08-21T02:48:57;100745.94;;;15.59;74.57
50292;BME280;36190;54.980;73.388;2022-08-21T02:51:25;100738.25;;;15.78;74.21
50292;BME280;36190;54.980;73.388;2022-08-21T02:53:52;100748.34;;;15.98;73.85
50292;BME280;36190;54.980;73.388;2022-08-21T02:56:20;100741.59;;;16.08;73.54
50292;BME280;36190;54.980;73.388;2022-08-21T02:58:50;100744.94;;;16.11;73.38
50292;BME280;36190;54.980;73.388;2022-08-21T03:01:19;100745.56;;;16.13;73.44
50292;BME280;36190;54.980;73.388;2022-08-21T03:03:48;100750.13;;;16.12;73.44
50292;BME280;36190;54.980;73.388;2022-08-21T03:06:20;100753.84;;;16.11;73.64
50292;BME280;36190;54.980;73.388;2022-08-21T03:08:48;100754.25;;;16.08;73.70
50292;BME280;36190;54.980;73.388;2022-08-21T03:11:16;100753.34;;;16.01;73.93
50292;BME280;36190;54.980;73.388;2022-08-21T03:13:44;100758.69;;;15.94;73.98
50292;BME280;36190;54.980;73.388;2022-08-21T03:16:12;100751.53;;;15.86;74.32
50292;BME280;36190;54.980;73.388;2022-08-21T03:18:39;100756.44;;;15.76;74.58
50292;BME280;36190;54.980;73.388;2022-08-21T03:21:07;100764.19;;;15.64;75.07
50292;BME280;36190;54.980;73.388;2022-08-21T03:23:36;100757.88;;;15.50;75.46
50292;BME280;36190;54.980;73.388;2022-08-21T03:26:05;100752.41;;;15.43;75.86
50292;BME280;36190;54.980;73.388;2022-08-21T03:28:32;100761.50;;;15.42;76.06
50292;BME280;36190;54.980;73.388;2022-08-21T03:31:00;100764.38;;;15.40;76.31
50292;BME280;36190;54.980;73.388;2022-08-21T03:33:27;100761.03;;;15.38;76.46
50292;BME280;36190;54.980;73.388;2022-08-21T03:36:00;100763.16;;;15.43;76.78
50292;BME280;36190;54.980;73.388;2022-08-21T03:38:29;100766.75;;;15.50;76.69
50292;BME280;36190;54.980;73.388;2022-08-21T03:40:59;100768.22;;;15.53;76.50
50292;BME280;36190;54.980;73.388;2022-08-21T03:43:27;100770.53;;;15.56;76.43
50292;BME280;36190;54.980;73.388;2022-08-21T03:45:54;100775.53;;;15.59;76.65
50292;BME280;36190;54.980;73.388;2022-08-21T03:48:22;100775.41;;;15.67;76.41
50292;BME280;36190;54.980;73.388;2022-08-21T03:50:52;100774.63;;;15.74;76.26
50292;BME280;36190;54.980;73.388;2022-08-21T03:53:20;100764.75;;;15.81;76.12
50292;BME280;36190;54.980;73.388;2022-08-21T03:55:48;100774.38;;;15.90;76.10
50292;BME280;36190;54.980;73.388;2022-08-21T03:58:19;100773.41;;;15.98;76.00
50292;BME280;36190;54.980;73.388;2022-08-21T04:00:49;100771.78;;;16.04;75.91
50292;BME280;36190;54.980;73.388;2022-08-21T04:03:18;100787.34;;;16.08;76.12
50292;BME280;36190;54.980;73.388;2022-08-21T04:05:46;100790.84;;;16.02;76.46
50292;BME280;36190;54.980;73.388;2022-08-21T04:08:14;100786.81;;;15.91;77.26
50292;BME280;36190;54.980;73.388;2022-08-21T04:10:43;100784.59;;;15.80;78.00
50292;BME280;36190;54.980;73.388;2022-08-21T04:13:12;100785.94;;;15.69;78.84
50292;BME280;36190;54.980;73.388;2022-08-21T04:15:42;100789.75;;;15.53;79.74
50292;BME280;36190;54.980;73.388;2022-08-21T04:18:09;100779.69;;;15.40;80.40
50292;BME280;36190;54.980;73.388;2022-08-21T04:20:37;100783.69;;;15.29;81.04
50292;BME280;36190;54.980;73.388;2022-08-21T04:23:05;100789.66;;;15.24;81.53
50292;BME280;36190;54.980;73.388;2022-08-21T04:25:33;100788.56;;;15.19;81.78
50292;BME280;36190;54.980;73.388;2022-08-21T04:28:01;100793.41;;;15.08;82.14
50292;BME280;36190;54.980;73.388;2022-08-21T04:30:28;100789.13;;;14.99;82.61
50292;BME280;36190;54.980;73.388;2022-08-21T04:32:58;100795.28;;;14.93;82.97
50292;BME280;36190;54.980;73.388;2022-08-21T04:35:27;100789.34;;;14.82;83.27
50292;BME280;36190;54.980;73.388;2022-08-21T04:37:55;100789.59;;;14.73;83.69
50292;BME280;36190;54.980;73.388;2022-08-21T04:40:24;100784.50;;;14.63;83.93
50292;BME280;36190;54.980;73.388;2022-08-21T04:42:54;100788.22;;;14.62;84.44
50292;BME280;36190;54.980;73.388;2022-08-21T04:45:24;100802.28;;;14.64;84.50
50292;BME280;36190;54.980;73.388;2022-08-21T04:47:54;100796.84;;;14.57;84.80
50292;BME280;36190;54.980;73.388;2022-08-21T04:50:27;100792.00;;;14.52;85.17
50292;BME280;36190;54.980;73.388;2022-08-21T04:52:55;100791.53;;;14.64;84.92
50292;BME280;36190;54.980;73.388;2022-08-21T04:55:24;100792.19;;;14.66;84.85
50292;BME280;36190;54.980;73.388;2022-08-21T04:57:53;100788.75;;;14.72;84.79
50292;BME280;36190;54.980;73.388;2022-08-21T05:00:22;100787.59;;;14.75;85.10
50292;BME280;36190;54.980;73.388;2022-08-21T05:02:51;100792.22;;;14.81;85.07
50292;BME280;36190;54.980;73.388;2022-08-21T05:05:27;100791.84;;;14.84;85.13
50292;BME280;36190;54.980;73.388;2022-08-21T05:07:57;100799.22;;;14.97;85.15
50292;BME280;36190;54.980;73.388;2022-08-21T05:10:26;100794.16;;;15.02;84.80
50292;BME280;36190;54.980;73.388;2022-08-21T05:12:54;100799.19;;;15.12;84.88
50292;BME280;36190;54.980;73.388;2022-08-21T05:15:22;100789.38;;;15.19;84.90
50292;BME280;36190;54.980;73.388;2022-08-21T05:17:49;100785.75;;;15.27;84.69
50292;BME280;36190;54.980;73.388;2022-08-21T05:20:17;100789.13;;;15.36;84.73
50292;BME280;36190;54.980;73.388;2022-08-21T05:22:46;100787.00;;;15.46;84.66
50292;BME280;36190;54.980;73.388;2022-08-21T05:25:14;100786.41;;;15.73;84.51
50292;BME280;36190;54.980;73.388;2022-08-21T05:27:41;100786.03;;;15.98;84.17
50292;BME280;36190;54.980;73.388;2022-08-21T05:30:10;100779.09;;;16.10;83.68
50292;BME280;36190;54.980;73.388;2022-08-21T05:32:37;100787.59;;;16.42;83.16
50292;BME280;36190;54.980;73.388;2022-08-21T05:35:06;100792.94;;;16.71;82.55
50292;BME280;36190;54.980;73.388;2022-08-21T05:37:34;100791.59;;;16.95;82.03
50292;BME280;36190;54.980;73.388;2022-08-21T05:40:04;100796.66;;;17.12;81.65
50292;BME280;36190;54.980;73.388;2022-08-21T05:42:33;100796.28;;;17.28;81.29
50292;BME280;36190;54.980;73.388;2022-08-21T05:45:00;100792.22;;;17.46;80.90
50292;BME280;36190;54.980;73.388;2022-08-21T05:47:28;100800.53;;;17.65;80.42
50292;BME280;36190;54.980;73.388;2022-08-21T05:49:55;100796.81;;;17.72;79.73
50292;BME280;36190;54.980;73.388;2022-08-21T05:52:22;100795.16;;;17.78;79.39
50292;BME280;36190;54.980;73.388;2022-08-21T05:54:50;100798.28;;;17.95;79.05
50292;BME280;36190;54.980;73.388;2022-08-21T05:57:21;100796.00;;;18.06;78.37
50292;BME280;36190;54.980;73.388;2022-08-21T05:59:49;100792.28;;;18.13;77.98
50292;BME280;36190;54.980;73.388;2022-08-21T06:02:17;100790.19;;;18.16;77.66
50292;BME280;36190;54.980;73.388;2022-08-21T06:04:44;100801.44;;;18.12;77.36
50292;BME280;36190;54.980;73.388;2022-08-21T06:07:12;100798.31;;;18.09;77.32
50292;BME280;36190;54.980;73.388;2022-08-21T06:09:39;100791.25;;;18.14;77.10
50292;BME280;36190;54.980;73.388;2022-08-21T06:12:09;100794.13;;;18.33;76.57
50292;BME280;36190;54.980;73.388;2022-08-21T06:14:39;100796.56;;;18.62;75.97
50292;BME280;36190;54.980;73.388;2022-08-21T06:17:08;100780.28;;;18.82;75.07
50292;BME280;36190;54.980;73.388;2022-08-21T06:19:36;100790.00;;;18.96;74.37
50292;BME280;36190;54.980;73.388;2022-08-21T06:22:04;100791.69;;;18.91;74.59
50292;BME280;36190;54.980;73.388;2022-08-21T06:24:32;100785.88;;;18.87;74.86
50292;BME280;36190;54.980;73.388;2022-08-21T06:27:04;100783.78;;;18.89;74.40
50292;BME280;36190;54.980;73.388;2022-08-21T06:29:33;100780.84;;;18.97;74.23
50292;BME280;36190;54.980;73.388;2022-08-21T06:32:03;100786.84;;;19.13;73.77
50292;BME280;36190;54.980;73.388;2022-08-21T06:34:35;100782.97;;;19.34;73.05
50292;BME280;36190;54.980;73.388;2022-08-21T06:37:03;100777.66;;;19.53;72.50
50292;BME280;36190;54.980;73.388;2022-08-21T06:39:30;100791.88;;;19.74;71.56
50292;BME280;36190;54.980;73.388;2022-08-21T06:41:58;100788.69;;;19.84;71.23
50292;BME280;36190;54.980;73.388;2022-08-21T06:44:26;100787.41;;;19.86;70.98
50292;BME280;36190;54.980;73.388;2022-08-21T06:46:54;100783.22;;;19.90;70.74
50292;BME280;36190;54.980;73.388;2022-08-21T06:49:22;100781.53;;;19.96;70.53
50292;BME280;36190;54.980;73.388;2022-08-21T06:51:50;100793.44;;;20.14;70.00
50292;BME280;36190;54.980;73.388;2022-08-21T06:54:17;100782.22;;;20.36;69.47
50292;BME280;36190;54.980;73.388;2022-08-21T06:56:44;100784.16;;;20.47;69.43
50292;BME280;36190;54.980;73.388;2022-08-21T06:59:12;100777.34;;;20.44;68.86
50292;BME280;36190;54.980;73.388;2022-08-21T07:01:39;100783.25;;;20.34;68.89
50292;BME280;36190;54.980;73.388;2022-08-21T07:04:07;100775.72;;;20.37;68.86
50292;BME280;36190;54.980;73.388;2022-08-21T07:06:36;100776.13;;;20.40;68.86
50292;BME280;36190;54.980;73.388;2022-08-21T07:09:03;100784.25;;;20.40;68.75
50292;BME280;36190;54.980;73.388;2022-08-21T07:11:31;100778.72;;;20.28;69.21
50292;BME280;36190;54.980;73.388;2022-08-21T07:13:58;100784.56;;;20.06;69.92
50292;BME280;36190;54.980;73.388;2022-08-21T07:16:26;100784.53;;;19.81;71.05
50292;BME280;36190;54.980;73.388;2022-08-21T07:18:53;100788.19;;;19.68;71.96
50292;BME280;36190;54.980;73.388;2022-08-21T07:21:21;100782.16;;;19.66;72.29
50292;BME280;36190;54.980;73.388;2022-08-21T07:23:51;100790.91;;;19.61;73.11
50292;BME280;36190;54.980;73.388;2022-08-21T07:26:20;100779.63;;;19.39;73.58
50292;BME280;36190;54.980;73.388;2022-08-21T07:28:50;100788.00;;;19.31;74.26
50292;BME280;36190;54.980;73.388;2022-08-21T07:31:19;100793.78;;;19.34;74.40
50292;BME280;36190;54.980;73.388;2022-08-21T07:33:47;100792.28;;;19.45;73.86
50292;BME280;36190;54.980;73.388;2022-08-21T07:36:15;100800.13;;;19.54;73.81
50292;BME280;36190;54.980;73.388;2022-08-21T07:38:43;100799.34;;;19.46;73.87
50292;BME280;36190;54.980;73.388;2022-08-21T07:41:15;100794.91;;;19.27;74.31
50292;BME280;36190;54.980;73.388;2022-08-21T07:43:43;100795.00;;;19.06;74.19
50292;BME280;36190;54.980;73.388;2022-08-21T07:46:11;100803.31;;;18.91;74.16
50292;BME280;36190;54.980;73.388;2022-08-21T07:48:38;100790.84;;;18.90;74.16
50292;BME280;36190;54.980;73.388;2022-08-21T07:51:08;100795.19;;;19.05;73.44
50292;BME280;36190;54.980;73.388;2022-08-21T07:53:36;100800.75;;;19.17;72.82
50292;BME280;36190;54.980;73.388;2022-08-21T07:56:05;100799.16;;;19.09;72.68
50292;BME280;36190;54.980;73.388;2022-08-21T07:58:35;100808.50;;;19.00;72.59
50292;BME280;36190;54.980;73.388;2022-08-21T08:01:02;100816.00;;;18.97;72.15
50292;BME280;36190;54.980;73.388;2022-08-21T08:03:30;100817.44;;;19.00;71.85
50292;BME280;36190;54.980;73.388;2022-08-21T08:05:57;100823.09;;;19.05;71.71
50292;BME280;36190;54.980;73.388;2022-08-21T08:08:25;100820.34;;;19.12;71.38
50292;BME280;36190;54.980;73.388;2022-08-21T08:10:53;100815.28;;;19.22;71.10
50292;BME280;36190;54.980;73.388;2022-08-21T08:13:21;100826.91;;;19.30;70.73
50292;BME280;36190;54.980;73.388;2022-08-21T08:15:49;100824.91;;;19.18;71.01
50292;BME280;36190;54.980;73.388;2022-08-21T08:18:17;100837.25;;;18.87;71.44
50292;BME280;36190;54.980;73.388;2022-08-21T08:20:44;100834.84;;;18.25;72.66
50292;BME280;36190;54.980;73.388;2022-08-21T08:23:12;100837.91;;;17.68;74.07
50292;BME280;36190;54.980;73.388;2022-08-21T08:25:40;100841.94;;;17.30;74.98
50292;BME280;36190;54.980;73.388;2022-08-21T08:28:08;100839.59;;;17.07;75.62
50292;BME280;36190;54.980;73.388;2022-08-21T08:30:35;100843.44;;;16.97;76.02
50292;BME280;36190;54.980;73.388;2022-08-21T08:33:04;100838.25;;;16.96;76.19
50292;BME280;36190;54.980;73.388;2022-08-21T08:35:31;100848.28;;;17.02;76.14
50292;BME280;36190;54.980;73.388;2022-08-21T08:37:59;100852.66;;;17.10;76.11
50292;BME280;36190;54.980;73.388;2022-08-21T08:40:32;100856.84;;;17.19;76.20
50292;BME280;36190;54.980;73.388;2022-08-21T08:43:04;100850.88;;;17.30;75.51
50292;BME280;36190;54.980;73.388;2022-08-21T08:45:35;100836.81;;;17.42;74.84
50292;BME280;36190;54.980;73.388;2022-08-21T08:48:08;100842.47;;;17.67;74.13
50292;BME280;36190;54.980;73.388;2022-08-21T08:50:41;100846.25;;;17.86;73.65
50292;BME280;36190;54.980;73.388;2022-08-21T08:53:16;100849.56;;;17.89;73.48
50292;BME280;36190;54.980;73.388;2022-08-21T08:55:46;100847.06;;;17.87;73.40
50292;BME280;36190;54.980;73.388;2022-08-21T08:58:19;100851.88;;;17.98;73.16
50292;BME280;36190;54.980;73.388;2022-08-21T09:00:49;100847.28;;;17.99;72.92
50292;BME280;36190;54.980;73.388;2022-08-21T09:03:18;100857.66;;;17.89;72.93
50292;BME280;36190;54.980;73.388;2022-08-21T09:05:52;100843.28;;;17.54;73.45
50292;BME280;36190;54.980;73.388;2022-08-21T09:08:32;100844.81;;;17.15;74.77
50292;BME280;36190;54.980;73.388;2022-08-21T09:11:11;100842.19;;;16.93;75.11
50292;BME280;36190;54.980;73.388;2022-08-21T09:13:49;100839.28;;;16.95;75.32
50292;BME280;36190;54.980;73.388;2022-08-21T09:16:24;100839.16;;;17.10;75.13
50292;BME280;36190;54.980;73.388;2022-08-21T09:19:03;100844.06;;;17.41;74.06
50292;BME280;36190;54.980;73.388;2022-08-21T09:21:38;100855.34;;;17.72;72.95
50292;BME280;36190;54.980;73.388;2022-08-21T09:24:22;100858.09;;;17.92;71.79
50292;BME280;36190;54.980;73.388;2022-08-21T09:27:01;100850.84;;;18.06;71.40
50292;BME280;36190;54.980;73.388;2022-08-21T09:29:33;100853.38;;;18.28;70.46
50292;BME280;36190;54.980;73.388;2022-08-21T09:32:03;100857.91;;;18.34;69.78
50292;BME280;36190;54.980;73.388;2022-08-21T09:34:32;100848.56;;;18.44;69.44
50292;BME280;36190;54.980;73.388;2022-08-21T09:37:00;100853.97;;;18.50;68.88
50292;BME280;36190;54.980;73.388;2022-08-21T09:39:30;100851.50;;;18.35;68.86
50292;BME280;36190;54.980;73.388;2022-08-21T09:41:59;100854.81;;;18.24;69.09
50292;BME280;36190;54.980;73.388;2022-08-21T09:44:29;100855.84;;;18.09;69.17
50292;BME280;36190;54.980;73.388;2022-08-21T09:46:58;100867.06;;;18.06;69.17
50292;BME280;36190;54.980;73.388;2022-08-21T09:49:29;100870.75;;;17.92;69.03
50292;BME280;36190;54.980;73.388;2022-08-21T09:51:58;100861.56;;;17.72;69.09
50292;BME280;36190;54.980;73.388;2022-08-21T09:54:29;100864.50;;;17.71;68.80
50292;BME280;36190;54.980;73.388;2022-08-21T09:56:59;100867.81;;;17.80;68.61
50292;BME280;36190;54.980;73.388;2022-08-21T09:59:45;100876.56;;;18.02;67.93
50292;BME280;36190;54.980;73.388;2022-08-21T10:02:24;100865.00;;;18.22;67.32
50292;BME280;36190;54.980;73.388;2022-08-21T10:04:54;100868.28;;;18.51;66.73
50292;BME280;36190;54.980;73.388;2022-08-21T10:07:26;100876.59;;;18.69;66.30
50292;BME280;36190;54.980;73.388;2022-08-21T10:10:03;100881.97;;;18.76;66.09
50292;BME280;36190;54.980;73.388;2022-08-21T10:12:39;100878.69;;;18.54;66.45
50292;BME280;36190;54.980;73.388;2022-08-21T10:15:16;100880.78;;;18.18;67.30
50292;BME280;36190;54.980;73.388;2022-08-21T10:17:54;100876.38;;;17.97;67.37
50292;BME280;36190;54.980;73.388;2022-08-21T10:20:31;100889.63;;;17.92;67.65
50292;BME280;36190;54.980;73.388;2022-08-21T10:23:13;100891.47;;;17.78;67.70
50292;BME280;36190;54.980;73.388;2022-08-21T10:25:52;100889.78;;;17.63;68.45
50292;BME280;36190;54.980;73.388;2022-08-21T10:28:30;100899.88;;;17.41;69.04
50292;BME280;36190;54.980;73.388;2022-08-21T10:31:06;100903.66;;;17.04;69.73
50292;BME280;36190;54.980;73.388;2022-08-21T10:33:41;100900.16;;;16.82;70.22
50292;BME280;36190;54.980;73.388;2022-08-21T10:36:14;100900.00;;;16.62;70.63
50292;BME280;36190;54.980;73.388;2022-08-21T10:39:00;100906.97;;;16.49;70.95
50292;BME280;36190;54.980;73.388;2022-08-21T10:41:41;100921.97;;;16.37;71.24
50292;BME280;36190;54.980;73.388;2022-08-21T10:44:21;100913.47;;;16.33;71.05
50292;BME280;36190;54.980;73.388;2022-08-21T10:46:54;100914.44;;;16.26;71.01
50292;BME280;36190;54.980;73.388;2022-08-21T10:49:33;100914.25;;;16.27;70.92
50292;BME280;36190;54.980;73.388;2022-08-21T10:55:06;100913.84;;;16.30;70.38
50292;BME280;36190;54.980;73.388;2022-08-21T10:57:40;100907.69;;;16.36;70.16
50292;BME280;36190;54.980;73.388;2022-08-21T11:00:12;100907.75;;;16.43;69.90
50292;BME280;36190;54.980;73.388;2022-08-21T11:02:44;100903.56;;;16.62;69.58
50292;BME280;36190;54.980;73.388;2022-08-21T11:05:16;100910.13;;;16.82;68.96
50292;BME280;36190;54.980;73.388;2022-08-21T11:07:47;100916.72;;;17.08;68.15
50292;BME280;36190;54.980;73.388;2022-08-21T11:10:22;100912.03;;;17.23;67.53
50292;BME280;36190;54.980;73.388;2022-08-21T11:12:53;100922.06;;;17.43;66.95
50292;BME280;36190;54.980;73.388;2022-08-21T11:15:33;100916.31;;;17.59;66.41
50292;BME280;36190;54.980;73.388;2022-08-21T11:18:15;100915.56;;;17.79;66.04
50292;BME280;36190;54.980;73.388;2022-08-21T11:20:50;100920.44;;;18.18;65.31
50292;BME280;36190;54.980;73.388;2022-08-21T11:23:23;100923.38;;;18.63;64.05
50292;BME280;36190;54.980;73.388;2022-08-21T11:25:58;100919.19;;;19.01;63.16
50292;BME280;36190;54.980;73.388;2022-08-21T11:28:31;100920.41;;;18.99;62.91
50292;BME280;36190;54.980;73.388;2022-08-21T11:31:09;100918.59;;;18.72;63.51
50292;BME280;36190;54.980;73.388;2022-08-21T11:33:48;100920.69;;;18.36;63.83
50292;BME280;36190;54.980;73.388;2022-08-21T11:36:25;100923.13;;;18.04;64.41
50292;BME280;36190;54.980;73.388;2022-08-21T11:38:55;100927.44;;;17.92;65.07
50292;BME280;36190;54.980;73.388;2022-08-21T11:41:29;100924.03;;;17.63;65.79
50292;BME280;36190;54.980;73.388;2022-08-21T11:44:06;100922.13;;;17.56;65.88
50292;BME280;36190;54.980;73.388;2022-08-21T11:46:44;100923.00;;;17.70;65.73
50292;BME280;36190;54.980;73.388;2022-08-21T11:49:28;100923.34;;;18.09;64.85
50292;BME280;36190;54.980;73.388;2022-08-21T11:52:07;100913.19;;;18.38;63.62
50292;BME280;36190;54.980;73.388;2022-08-21T11:54:38;100928.09;;;19.22;62.48
50292;BME280;36190;54.980;73.388;2022-08-21T11:57:15;100921.13;;;19.85;60.12
50292;BME280;36190;54.980;73.388;2022-08-21T11:59:48;100926.69;;;20.29;59.01
50292;BME280;36190;54.980;73.388;2022-08-21T12:02:20;100922.72;;;20.57;58.19
50292;BME280;36190;54.980;73.388;2022-08-21T12:04:53;100935.25;;;20.77;57.39
50292;BME280;36190;54.980;73.388;2022-08-21T12:07:34;100935.09;;;20.72;56.95
50292;BME280;36190;54.980;73.388;2022-08-21T12:10:06;100940.25;;;20.55;57.10
50292;BME280;36190;54.980;73.388;2022-08-21T12:12:38;100943.50;;;20.64;57.02
50292;BME280;36190;54.980;73.388;2022-08-21T12:15:26;100936.78;;;20.73;56.47
50292;BME280;36190;54.980;73.388;2022-08-21T12:17:58;100944.97;;;20.41;56.63
50292;BME280;36190;54.980;73.388;2022-08-21T12:20:42;100938.94;;;20.06;56.93
50292;BME280;36190;54.980;73.388;2022-08-21T12:23:24;100944.13;;;19.69;57.34
50292;BME280;36190;54.980;73.388;2022-08-21T12:26:09;100943.13;;;19.57;57.80
50292;BME280;36190;54.980;73.388;2022-08-21T12:28:40;100946.97;;;19.81;56.83
50292;BME280;36190;54.980;73.388;2022-08-21T12:31:18;100947.38;;;19.85;55.63
50292;BME280;36190;54.980;73.388;2022-08-21T12:33:53;100944.66;;;19.39;55.90
50292;BME280;36190;54.980;73.388;2022-08-21T12:36:24;100950.59;;;19.09;56.77
50292;BME280;36190;54.980;73.388;2022-08-21T12:38:56;100953.88;;;18.97;56.88
50292;BME280;36190;54.980;73.388;2022-08-21T12:41:28;100954.31;;;19.08;56.14
50292;BME280;36190;54.980;73.388;2022-08-21T12:44:02;100946.00;;;19.09;56.02
50292;BME280;36190;54.980;73.388;2022-08-21T12:46:37;100964.31;;;19.01;55.83
50292;BME280;36190;54.980;73.388;2022-08-21T12:49:07;100953.91;;;19.04;56.51
50292;BME280;36190;54.980;73.388;2022-08-21T12:51:48;100951.22;;;18.57;56.55
50292;BME280;36190;54.980;73.388;2022-08-21T12:54:26;100958.69;;;18.28;57.31
50292;BME280;36190;54.980;73.388;2022-08-21T12:56:59;100959.81;;;17.92;58.11
50292;BME280;36190;54.980;73.388;2022-08-21T12:59:28;100953.47;;;17.57;58.80